Home > Products > Valid Products > TAF

000
FTUS46 KMTR 221900 AAC
TAFOAK
TAF AMD
KOAK 221934Z 2220/2324 31005KT P6SM OVC006
     FM222300 29007KT P6SM BKN025
     FM230300 24004KT P6SM OVC015
     FM231200 VRB03KT 4SM BR OVC015
     FM231500 00000KT 1/2SM FG VV002
     FM231900 VRB03KT P6SM BKN015=



000
FTUS46 KMTR 221900 AAB
TAFSFO
TAF AMD
KSFO 221930Z 2220/2324 VRB04KT 1/4SM FG VV002
     FM222030 31005KT 1SM BR OVC003
     FM222115 29011KT P6SM SCT025
     FM230300 24004KT P6SM SCT030
     FM231000 00000KT 5SM BR OVC006
     FM231600 00000KT 1SM BR OVC002
     FM231900 00000KT P6SM BKN015=



000
FTUS46 KMTR 221800 AAA
TAFMRY
TAF AMD
KMRY 221852Z 2219/2318 VRB04KT P6SM SCT020
     FM230200 VRB03KT P6SM OVC012
     FM230800 VRB03KT 4SM BR OVC006
     FM231600 VRB03KT P6SM BKN015=



000
FTUS46 KMTR 221800 AAA
TAFSFO
TAF AMD
KSFO 221851Z 2219/2324 VRB04KT 1/4SM FG VV002
     FM221930 31005KT 1SM BR OVC003
     FM222030 29011KT P6SM SCT025
     FM230300 24004KT P6SM SCT030
     FM231000 00000KT 5SM BR OVC006
     FM231600 00000KT 1SM BR OVC002
     FM231900 00000KT P6SM BKN015=



000
FTUS46 KMTR 221800 AAB
TAFOAK
TAF AMD
KOAK 221851Z 2219/2324 00000KT 6SM BR OVC006
     FM222000 31005KT P6SM BKN015
     FM222300 29007KT P6SM BKN025
     FM230300 24004KT P6SM OVC015
     FM231200 VRB03KT 4SM BR OVC015
     FM231500 00000KT 1/2SM FG VV002
     FM231900 VRB03KT P6SM BKN015=



000
FTUS46 KMTR 221700 AAA
TAFOAK
TAF AMD
KOAK 221757Z 2218/2324 00000KT 1/2SM FG VV002
     FM221900 00000KT 1SM BR OVC002
     FM222000 31005KT P6SM BKN015
     FM222300 29007KT P6SM BKN025
     FM230300 24004KT P6SM OVC015
     FM231200 VRB03KT 4SM BR OVC015
     FM231500 00000KT 1/2SM FG VV002
     FM231900 VRB03KT P6SM BKN015=



000
FTUS46 KMTR 221700 AAA
TAFSNS
TAF AMD
KSNS 221756Z 2218/2318 29005KT P6SM SCT020
     FM230300 29005KT P6SM OVC015=



000
FTUS46 KMTR 221700
TAFSJC
TAF
KSJC 221723Z 2218/2318 VRB03KT P6SM OVC015
     FM222000 31008KT P6SM SCT025
     FM230400 VRB03KT P6SM OVC015=



000
FTUS46 KMTR 221700
TAFSNS
TAF
KSNS 221723Z 2218/2318 00000KT 1SM BR BKN002
     FM221900 29005KT P6SM SCT007 BKN012
     FM222100 29008KT P6SM SCT015
     FM230300 29005KT P6SM OVC015=



000
FTUS46 KMTR 221700
TAFSTS
TAF
KSTS 221723Z 2218/2318 VRB03KT P6SM FEW003 SCT005
     FM222000 15005KT P6SM SKC
     FM230600 VRB03KT 1/2SM FG VV004=



000
FTUS46 KMTR 221700
TAFOAK
TAF
KOAK 221723Z 2218/2324 00000KT 1/4SM FG VV002
     FM221900 00000KT 1SM BR OVC002
     FM222000 31005KT P6SM BKN015
     FM222300 29007KT P6SM BKN025
     FM230300 24004KT P6SM OVC015
     FM231200 VRB03KT 4SM BR OVC015
     FM231500 00000KT 1/2SM FG VV002
     FM231900 VRB03KT P6SM BKN015=



000
FTUS46 KMTR 221700
TAFMRY
TAF
KMRY 221723Z 2218/2318 00000KT 3SM BR SCT002 OVC016
     FM221900 30005KT P6SM BKN016
     FM222100 30005KT P6SM SCT020
     FM230200 VRB03KT P6SM OVC012
     FM230800 VRB03KT 4SM BR OVC006
     FM231600 VRB03KT P6SM BKN015=



000
FTUS46 KMTR 221700
TAFSFO
TAF
KSFO 221723Z 2218/2324 VRB04KT 1/4SM FG VV001
     FM221900 31005KT 1SM BR OVC003
     FM222000 29011KT P6SM SCT025
     FM230300 24004KT P6SM SCT030
     FM231000 00000KT 5SM BR OVC006
     FM231600 00000KT 1SM BR OVC002
     FM231900 00000KT P6SM BKN015=



000
FTUS46 KMTR 221600 AAC
TAFOAK
TAF AMD
KOAK 221649Z 2217/2318 00000KT 1/4SM FG VV002
     FM221900 00000KT 1SM BR OVC002
     FM222000 31005KT P6SM BKN015
     FM222300 29007KT P6SM BKN025
     FM230300 24004KT P6SM OVC015
     FM231200 VRB03KT 4SM BR OVC015=



000
FTUS46 KMTR 221600 AAE
TAFSFO
TAF AMD
KSFO 221641Z 2217/2318 VRB04KT 1/4SM FG VV001
     FM221900 31005KT 1SM BR OVC003
     FM222000 29011KT P6SM SCT025
     FM230300 24004KT P6SM SCT030
     FM231000 00000KT 5SM BR OVC006=



000
FTUS46 KMTR 221500 AAB
TAFOAK
TAF AMD
KOAK 221548Z 2216/2318 00000KT 1/4SM FG VV002
     FM221700 00000KT 3SM BR OVC002
     FM221900 31005KT P6SM BKN015
     FM222300 29007KT P6SM BKN025
     FM230300 24004KT P6SM OVC015
     FM231200 VRB03KT 4SM BR OVC015=



000
FTUS46 KMTR 221500 AAB
TAFOAK
TAF AMD
KOAK 221548Z 2216/2318 00000KT 1/4SM FG VV002
     FM221700 00000KT 3SM BR OVC002
     FM221900 31005KT P6SM BKN015
     FM222300 29007KT P6SM BKN025
     FM230300 24004KT P6SM OVC015
     FM231200 VRB03KT 4SM BR OVC015=



000
FTUS46 KMTR 221500 AAA
TAFSNS
TAF AMD
KSNS 221516Z 2215/2312 00000KT 1/4SM FG VV001
     FM221630 00000KT 1SM BR BKN002
     FM221900 29005KT P6SM SCT007 BKN012
     FM222100 29008KT P6SM SCT015
     FM230300 29005KT P6SM OVC015=



000
FTUS46 KMTR 221500 AAD
TAFSFO
TAF AMD
KSFO 221502Z 2215/2318 29004KT 3SM BR OVC006
      TEMPO 2215/2217 1/2SM FG VV003
     FM221900 31005KT P6SM SCT007 BKN015
     FM222000 29011KT P6SM SCT025
     FM230300 24004KT P6SM SCT030
     FM231000 00000KT 5SM BR OVC006=



000
FTUS46 KMTR 221400 AAA
TAFMRY
TAF AMD
KMRY 221407Z 2214/2312 00000KT 3SM BR SCT002 OVC016
      TEMPO 2214/2216 1/4SM FG VV002
     FM221900 30005KT P6SM BKN016
     FM222100 30005KT P6SM SCT020
     FM230200 VRB03KT P6SM OVC012
     FM230800 VRB03KT 4SM BR OVC006=



000
FTUS46 KMTR 221300 AAC
TAFSFO
TAF AMD
KSFO 221353Z 2214/2318 29004KT 3SM BR OVC006
      TEMPO 2214/2217 1/2SM FG VV003
     FM221900 31005KT P6SM SCT007 BKN015
     FM222000 29011KT P6SM SCT025
     FM230300 24004KT P6SM SCT030
     FM231000 00000KT 5SM BR OVC006=



000
FTUS46 KMTR 221300 AAC
TAFSFO
TAF AMD
KSFO 221353Z 2214/2318 29004KT 3SM BR OVC006
      TEMPO 2214/2217 1/2SM FG VV003
     FM221900 31005KT P6SM SCT007 BKN015
     FM222000 29011KT P6SM SCT025
     FM230300 24004KT P6SM SCT030
     FM231000 00000KT 5SM BR OVC006=



000
FTUS46 KMTR 221200 AAB
TAFSFO
TAF AMD
KSFO 221206Z 2212/2318 29005KT P6SM SCT006
     FM221300 29004KT 3SM BR OVC003
      TEMPO 2213/2217 1/2SM FG
     FM221900 31005KT P6SM SCT007 OVC015
     FM222300 29011KT P6SM BKN025
     FM230300 24004KT P6SM SCT030
     FM231000 00000KT 5SM BR OVC006=



000
FTUS46 KMTR 221100 AAA
TAFSFO
TAF AMD
KSFO 221146Z 2212/2318 29005KT P6SM OVC006
      TEMPO 2213/2217 2SM BR
     FM221900 31005KT P6SM SCT007 OVC015
     FM222300 29011KT P6SM BKN025
     FM230300 24004KT P6SM SCT030
     FM231000 00000KT 5SM BR OVC006=



000
FTUS46 KMTR 221100 AAA
TAFOAK
TAF AMD
KOAK 221144Z 2212/2318 00000KT 2SM BR OVC005
      TEMPO 2213/2217 1/2SM FG OVC002
     FM222000 31005KT P6SM BKN015
     FM222300 29007KT P6SM BKN025
     FM230300 24004KT P6SM OVC015
     FM231200 VRB03KT 4SM BR OVC015=



000
FTUS46 KMTR 221100
TAFSNS
TAF
KSNS 221138Z 2212/2312 00000KT 3SM BR OVC002
      TEMPO 2212/2216 1/2SM FG
     FM221900 29005KT P6SM SCT007 BKN012
     FM222100 29008KT P6SM SCT015
     FM230300 29005KT P6SM OVC015=



000
FTUS46 KMTR 221100
TAFOAK
TAF
KOAK 221138Z 2212/2318 00000KT 6SM BR SCT015
     FM221300 00000KT 3SM BR OVC005
      TEMPO 2213/2217 1/2SM FG OVC002
     FM222000 31005KT P6SM BKN015
     FM222300 29007KT P6SM BKN025
     FM230300 24004KT P6SM OVC015
     FM231200 VRB03KT 4SM BR OVC015=



000
FTUS46 KMTR 221100
TAFSJC
TAF
KSJC 221138Z 2212/2312 VRB03KT P6SM OVC015
     FM222000 31008KT P6SM SCT025
     FM230400 VRB03KT P6SM OVC015=



000
FTUS46 KMTR 221100
TAFSTS
TAF
KSTS 221138Z 2212/2312 00000KT 1/4SM FG VV002
     FM221800 VRB03KT P6SM FEW003 SCT005
     FM222000 15005KT P6SM SKC
     FM230600 VRB03KT 1/2SM FG VV004=



000
FTUS46 KMTR 221100
TAFSFO
TAF
KSFO 221138Z 2212/2318 29005KT P6SM OVC015
     FM221800 31005KT P6SM SCT007 OVC015
     FM222300 29011KT P6SM BKN025
     FM230300 24004KT P6SM SCT030
     FM231000 00000KT 5SM BR OVC006=



000
FTUS46 KMTR 221100
TAFMRY
TAF
KMRY 221138Z 2212/2312 00000KT 3SM BR OVC002
      TEMPO 2212/2216 1/4SM FG
     FM221900 30005KT P6SM BKN007 OVC012
     FM222100 30005KT P6SM SCT007 BKN012
     FM230200 VRB03KT P6SM OVC012
     FM230800 VRB03KT 4SM BR OVC006=



000
FTUS46 KMTR 220900 AAA
TAFSFO
TAF AMD
KSFO 220912Z 2209/2312 29005KT 5SM BR BKN007 OVC012
     FM221800 31005KT P6SM SCT007 OVC015
     FM222300 29011KT P6SM BKN025
     FM230300 24004KT P6SM SCT030=



000
FTUS46 KMTR 220500
TAFSNS
TAF
KSNS 220520Z 2206/2306 VRB03KT P6SM OVC025
     FM221200 00000KT 6SM BR BKN007 OVC012
     FM221900 29006KT P6SM SCT007 OVC012
     FM230300 VRB03KT P6SM FEW007 BKN011=



000
FTUS46 KMTR 220500
TAFMRY
TAF
KMRY 220520Z 2206/2306 VRB03KT P6SM BKN007 OVC010
     FM221000 00000KT 6SM BR OVC007
     FM221900 30005KT P6SM SCT007 OVC012
     FM230300 VRB03KT P6SM FEW007 BKN011=



000
FTUS46 KMTR 220500
TAFOAK
TAF
KOAK 220520Z 2206/2312 VRB03KT P6SM SCT009 BKN012
     FM220700 00000KT 4SM BR OVC009
     FM221800 31005KT P6SM OVC015
     FM222300 29007KT P6SM BKN025
     FM230300 24004KT P6SM BKN030=



000
FTUS46 KMTR 220500
TAFSFO
TAF
KSFO 220520Z 2206/2312 29007KT P6SM SCT009 BKN012
     FM220900 30004KT 5SM BR BKN007 OVC012
     FM221800 31005KT P6SM SCT007 OVC015
     FM222300 29011KT P6SM BKN025
     FM230300 24004KT P6SM SCT030=



000
FTUS46 KMTR 220500
TAFSJC
TAF
KSJC 220520Z 2206/2306 VRB03KT P6SM BKN015
     FM221000 VRB03KT 6SM BR BKN009 OVC015
     FM221800 31005KT P6SM SCT015 BKN035
     FM230300 VRB03KT P6SM SCT020 OVC030=



000
FTUS46 KMTR 220500
TAFSTS
TAF
KSTS 220520Z 2206/2306 00000KT 1/4SM FG VV002
     FM221800 VRB03KT P6SM FEW003 SCT009
     FM230300 33004KT P6SM FEW007=



000
FTUS46 KMTR 220300 AAA
TAFSTS
TAF AMD
KSTS 220310Z 2203/2224 VRB03KT P6SM BKN012 BKN028
     FM220400 00000KT 5SM BR OVC007
     FM220600 00000KT 3SM BR OVC004
     FM221000 00000KT 2SM BR OVC003
     FM222000 33004KT 5SM BR OVC007=



000
FTUS46 KMTR 212300
TAFOAK
TAF
KOAK 212320Z 2200/2306 29006KT P6SM FEW010 BKN060
     FM220300 VRB03KT P6SM SCT009 BKN012
     FM220700 00000KT 4SM BR OVC009
     FM221800 31005KT P6SM OVC015
     FM222300 29007KT P6SM BKN025=



000
FTUS46 KMTR 212300
TAFSTS
TAF
KSTS 212320Z 2200/2224 VRB03KT P6SM BKN012 BKN028
     FM220300 00000KT 5SM BR OVC007
     FM220600 00000KT 3SM BR OVC004
     FM221000 00000KT 2SM BR OVC003
     FM222000 33004KT 5SM BR OVC007=



000
FTUS46 KMTR 212300
TAFSJC
TAF
KSJC 212320Z 2200/2224 32007KT P6SM SCT010 BKN016
      TEMPO 2200/2201 SCT016 BKN025
     FM220400 VRB03KT P6SM BKN015
     FM221000 VRB03KT 6SM BR BKN009 OVC015
     FM221800 31005KT P6SM SCT015 BKN035=



000
FTUS46 KMTR 212300
TAFSFO
TAF
KSFO 212320Z 2200/2306 28012KT P6SM FEW006 BKN009
      TEMPO 2200/2201 SCT009 BKN025
     FM220300 29007KT P6SM SCT009 BKN012
     FM220900 30004KT 5SM BR BKN007 OVC012
     FM221800 31005KT P6SM SCT007 OVC015
     FM222300 29011KT P6SM BKN025=



000
FTUS46 KMTR 212300
TAFMRY
TAF
KMRY 212320Z 2200/2224 29004KT P6SM SCT012 BKN019
      TEMPO 2200/2201 FEW012 SCT019
     FM220300 VRB03KT P6SM OVC010
     FM221000 00000KT 6SM BR OVC007
     FM221900 30005KT P6SM SCT007 OVC012=



000
FTUS46 KMTR 212300
TAFSNS
TAF
KSNS 212320Z 2200/2224 29007KT P6SM BKN019
      TEMPO 2200/2201 FEW019 SCT025
     FM220400 VRB03KT P6SM OVC015
     FM221200 00000KT 6SM BR BKN007 OVC012
     FM221900 29006KT P6SM SCT007 OVC012=



000
FTUS46 KMTR 212100 AAA
TAFSNS
TAF AMD
KSNS 212148Z 2122/2218 29007KT P6SM BKN019
      TEMPO 2122/2201 FEW019 SCT025
     FM220400 VRB03KT P6SM OVC015
     FM221200 00000KT 6SM BR BKN007 OVC012=



000
FTUS46 KMTR 212100 AAA
TAFMRY
TAF AMD
KMRY 212148Z 2122/2218 29004KT P6SM SCT012 BKN019
      TEMPO 2122/2201 FEW012 SCT019
     FM220300 VRB03KT P6SM OVC010
     FM221000 VRB03KT 6SM BR OVC007=



000
FTUS46 KMTR 212100 AAA
TAFSNS
TAF AMD
KSNS 212148Z 2122/2218 29007KT P6SM BKN019
      TEMPO 2122/2201 FEW019 SCT025
     FM220400 VRB03KT P6SM OVC015
     FM221200 00000KT 6SM BR BKN007 OVC012=



000
FTUS46 KMTR 212100 AAA
TAFMRY
TAF AMD
KMRY 212148Z 2122/2218 29004KT P6SM SCT012 BKN019
      TEMPO 2122/2201 FEW012 SCT019
     FM220300 VRB03KT P6SM OVC010
     FM221000 VRB03KT 6SM BR OVC007=



000
FTUS46 KMTR 212100 AAA
TAFSTS
TAF AMD
KSTS 212108Z 2121/2218 VRB03KT P6SM BKN007 BKN012
     FM220300 00000KT 5SM BR OVC007
     FM220800 00000KT 3SM BR OVC004=



000
FTUS46 KMTR 212100 AAA
TAFSTS
TAF AMD
KSTS 212108Z 2121/2218 VRB03KT P6SM BKN007 BKN012
     FM220300 00000KT 5SM BR OVC007
     FM220800 00000KT 3SM BR OVC004=



000
FTUS46 KMTR 212100 AAA
TAFSJC
TAF AMD
KSJC 212105Z 2121/2218 32007KT P6SM BKN011 OVC020
      TEMPO 2121/2201 SCT011 BKN025
     FM220400 VRB03KT P6SM BKN015
     FM221500 VRB03KT P6SM SCT015 BKN035=



000
FTUS46 KMTR 212100 AAB
TAFSFO
TAF AMD
KSFO 212102Z 2121/2224 28012KT P6SM FEW006 BKN009
      TEMPO 2121/2201 SCT009 BKN025
     FM220300 29007KT P6SM SCT009 BKN012
     FM220900 30004KT 5SM BR BKN007 OVC012
     FM221800 31005KT P6SM SCT007 OVC015=



000
FTUS46 KMTR 211900 AAA
TAFSFO
TAF AMD
KSFO 211913Z 2119/2224 28009KT P6SM BKN006 OVC012
     FM212000 30006KT P6SM SCT006 BKN012
      TEMPO 2121/2201 SCT012 BKN025
     FM220300 29007KT P6SM SCT009 BKN012
     FM220900 30004KT 5SM BR BKN007 OVC012
     FM221800 31005KT P6SM SCT007 OVC015=



000
FTUS46 KMTR 211700
TAFSFO
TAF
KSFO 211730Z 2118/2224 27008KT 5SM BR BKN005 OVC015
     FM212000 30006KT P6SM SCT012 BKN020
      TEMPO 2121/2201 FEW012 SCT020
     FM220300 29007KT P6SM SCT009 BKN012
     FM220900 30004KT 5SM BR BKN007 OVC012
     FM221800 31005KT P6SM SCT007 OVC015=



000
FTUS46 KMTR 211700
TAFMRY
TAF
KMRY 211730Z 2118/2218 29004KT P6SM SCT012 BKN020
      TEMPO 2121/2201 FEW012 SCT020
     FM220300 VRB03KT P6SM OVC010
     FM221000 VRB03KT 6SM BR OVC007=



000
FTUS46 KMTR 211700
TAFSJC
TAF
KSJC 211730Z 2118/2218 VRB03KT P6SM BKN015 OVC020
     FM211900 29007KT P6SM SCT015 BKN030
     FM220400 VRB03KT P6SM BKN015
     FM221500 VRB03KT P6SM SCT015 BKN035=



000
FTUS46 KMTR 211700
TAFOAK
TAF
KOAK 211730Z 2118/2224 16007KT 5SM BR SCT007 OVC015
      TEMPO 2118/2120 1/2SM -DZ FG BKN003
     FM212000 23006KT P6SM BKN020
     FM220300 VRB03KT P6SM SCT009 BKN012
     FM220700 00000KT 4SM BR OVC009
     FM221800 31005KT P6SM OVC015=



000
FTUS46 KMTR 211700
TAFSTS
TAF
KSTS 211730Z 2118/2218 00000KT 5SM BR BKN004 OVC008
      TEMPO 2118/2120 2SM -RA BR
     FM212000 VRB03KT 5SM BR SCT007 BKN015
     FM220300 00000KT 5SM BR OVC007
     FM220800 00000KT 3SM BR OVC004=



000
FTUS46 KMTR 211700
TAFSNS
TAF
KSNS 211730Z 2118/2218 VRB04KT P6SM BKN018
     FM212000 29007KT P6SM SCT018 BKN025
      TEMPO 2121/2201 FEW018 SCT025
     FM220400 VRB03KT P6SM OVC015
     FM221200 00000KT 6SM BR BKN007 OVC012=



000
FTUS46 KMTR 211500 AAA
TAFOAK
TAF AMD
KOAK 211508Z 2115/2218 16007KT 5SM -RA BR SCT005 OVC015
      TEMPO 2115/2117 1/2SM -DZ FG OVC005
     FM211800 23006KT P6SM BKN020
     FM220300 VRB03KT P6SM SCT009 BKN012
     FM220700 00000KT P6SM OVC009=



000
FTUS46 KMTR 211400 AAA
TAFSFO
TAF AMD
KSFO 211410Z 2114/2218 25005KT 3SM BR BKN006 OVC015
     FM211800 30006KT P6SM BKN020
     FM220300 29007KT P6SM SCT009 BKN012
     FM220700 25004KT P6SM OVC009=



000
FTUS46 KMTR 211400 AAA
TAFSFO
TAF AMD
KSFO 211410Z 2114/2218 25005KT 3SM BR BKN006 OVC015
     FM211800 30006KT P6SM BKN020
     FM220300 29007KT P6SM SCT009 BKN012
     FM220700 25004KT P6SM OVC009=



000
FTUS46 KMTR 211100
TAFMRY
TAF
KMRY 211128Z 2112/2212 VRB03KT P6SM OVC010
     FM211800 29004KT P6SM SCT012 BKN020
     FM220300 VRB03KT P6SM OVC010=



000
FTUS46 KMTR 211100
TAFSTS
TAF
KSTS 211128Z 2112/2212 17003KT 4SM BR OVC003
      TEMPO 2112/2116 1SM -DZ BR
     FM211800 VRB03KT 5SM BR SCT007 BKN015
     FM220300 00000KT 5SM BR OVC007
     FM220800 00000KT 3SM BR OVC004=



000
FTUS46 KMTR 211100
TAFSNS
TAF
KSNS 211128Z 2112/2212 14005KT P6SM OVC015
     FM211700 29007KT P6SM SCT018 BKN025
     FM220400 VRB03KT P6SM OVC015=



000
FTUS46 KMTR 211100
TAFSFO
TAF
KSFO 211128Z 2112/2218 25005KT P6SM BKN006 OVC015
     FM211800 30006KT P6SM BKN020
     FM220300 29007KT P6SM SCT009 BKN012
     FM220700 25004KT P6SM OVC009=



000
FTUS46 KMTR 211100
TAFSJC
TAF
KSJC 211128Z 2112/2212 VRB03KT P6SM OVC025
     FM211900 29007KT P6SM BKN030
     FM220400 VRB03KT P6SM BKN015=



000
FTUS46 KMTR 211100
TAFOAK
TAF
KOAK 211128Z 2112/2218 20005KT 5SM -RA BR SCT005 OVC015
      TEMPO 2112/2114 1SM -DZ OVC005
     FM211800 23006KT P6SM BKN020
     FM220300 VRB03KT P6SM SCT009 BKN012
     FM220700 00000KT P6SM OVC009=



000
FTUS46 KMTR 210900 AAA
TAFSFO
TAF AMD
KSFO 210909Z 2109/2212 23005KT 5SM BR OVC010
     FM211200 25005KT P6SM OVC012
     FM211800 30006KT P6SM BKN020
     FM220200 29007KT P6SM SCT009 BKN010=



000
FTUS46 KMTR 210500
TAFSTS
TAF
KSTS 210520Z 2106/2206 17003KT 4SM -RA BR SCT004 BKN009 OVC011
      TEMPO 2106/2110 1SM -RA BR BKN004 OVC007
     FM211500 VRB03KT 4SM BR OVC007
      TEMPO 2115/2118 1/2SM FG OVC001
     FM211800 VRB03KT 5SM BR SCT006 BKN015
     FM220300 00000KT 3SM BR BKN002 OVC007=



000
FTUS46 KMTR 210500
TAFSNS
TAF
KSNS 210520Z 2106/2206 27005KT P6SM SCT015 BKN030 OVC100
     FM210900 VRB03KT P6SM -RA BKN025 OVC035
     FM211200 14005KT P6SM OVC015
     FM211700 29007KT P6SM SCT012 BKN020
     FM220300 VRB03KT P6SM SCT012 BKN020=



000
FTUS46 KMTR 210500
TAFMRY
TAF
KMRY 210520Z 2106/2206 29005KT P6SM FEW020 BKN080
     FM210900 21003KT P6SM -RA BKN025 OVC030
     FM211200 VRB03KT P6SM VCSH OVC010
     FM211800 29004KT P6SM SCT012 BKN020
     FM220300 VRB03KT P6SM SCT010 BKN020=



000
FTUS46 KMTR 210500
TAFOAK
TAF
KOAK 210520Z 2106/2212 20005KT 5SM -RA BR SCT010 BKN035 OVC045
     FM211800 23006KT P6SM FEW010 BKN020
     FM220100 VRB03KT 6SM BR SCT009 BKN012
     FM220700 00000KT 4SM BR OVC012=



000
FTUS46 KMTR 210500
TAFSJC
TAF
KSJC 210520Z 2106/2206 24005KT P6SM SCT012 OVC060
     FM210800 12005KT 6SM -RA BR SCT010 BKN025 OVC035
     FM210900 VRB03KT P6SM VCSH BKN015 OVC050
     FM211900 21007KT P6SM SCT015 BKN050
     FM220300 VRB03KT P6SM BKN009=



000
FTUS46 KMTR 210500
TAFSFO
TAF
KSFO 210520Z 2106/2212 20005KT P6SM SCT010 OVC030
      TEMPO 2106/2108 -RA OVC030
     FM210800 20004KT P6SM SCT010 OVC030
      TEMPO 2108/2112 -RA OVC030
     FM211800 30006KT P6SM FEW010 BKN020
     FM220200 29007KT P6SM SCT009 BKN010=



000
FTUS46 KMTR 210300 AAA
TAFSFO
TAF AMD
KSFO 210301Z 2103/2206 17004KT P6SM SCT012 BKN040 OVC100
     FM210400 20005KT P6SM SCT010 OVC030
      TEMPO 2104/2108 -RA OVC030
     FM210800 20004KT P6SM SCT010 OVC030
      TEMPO 2108/2112 -RA OVC030
     FM211800 30006KT P6SM FEW010 BKN020
     FM220200 29007KT P6SM SCT009 BKN010=



000
FTUS46 KMTR 202300 RRA
TAFSTS
TAF
KSTS 202345Z 2100/2124 17004KT 4SM BR SCT007 BKN030 OVC040
      TEMPO 2100/2104 2SM -RA BR BKN007 OVC030
     FM210400 17003KT 4SM BR SCT004 BKN009 OVC011
      TEMPO 2104/2108 1SM -RA BR BKN004 OVC007
     FM210800 VRB03KT 4SM BR OVC007
      TEMPO 2109/2113 1/2SM FG OVC001
     FM211700 VRB03KT 5SM BR SCT006 BKN015=



000
FTUS46 KMTR 202300 RRA
TAFOAK
TAF
KOAK 202345Z 2100/2206 17004KT P6SM VCSH SCT009 BKN060 OVC090
     FM210200 20005KT 5SM -RA BR SCT010 BKN035 OVC045
     FM211800 23006KT P6SM FEW010 BKN020
     FM220100 VRB03KT 6SM BR SCT009 BKN012=



000
FTUS46 KMTR 202300 RRA
TAFSJC
TAF
KSJC 202345Z 2100/2124 24005KT P6SM SCT012 OVC060
     FM210300 12005KT 6SM -RA BR SCT010 BKN025 OVC035
     FM210900 VRB03KT P6SM VCSH BKN015 OVC050
     FM211900 21007KT P6SM SCT015 BKN050=



000
FTUS46 KMTR 202300 RRA
TAFSNS
TAF
KSNS 202345Z 2100/2124 27005KT P6SM SCT015 BKN030 OVC100
     FM210430 VRB03KT P6SM -RA BKN025 OVC035
     FM211200 14005KT P6SM OVC015
     FM211700 29007KT P6SM SCT012 BKN020=



000
FTUS46 KMTR 202300 RRA
TAFMRY
TAF
KMRY 202345Z 2100/2124 29005KT P6SM FEW020 BKN080
     FM210600 21003KT P6SM -RA BKN025 OVC030
     FM211200 VRB03KT P6SM VCSH OVC010
     FM211800 29004KT P6SM SCT012 BKN020=



000
FTUS46 KMTR 202300 RRA
TAFSFO
TAF
KSFO 202345Z 2100/2206 17004KT P6SM SCT012 BKN040 OVC100
     FM210300 20005KT 6SM -RA BR SCT010 OVC030
     FM211800 30006KT P6SM FEW010 BKN020
     FM220200 29007KT P6SM SCT009 BKN010=



000
FTUS46 KMTR 202100 AAB
TAFOAK
TAF AMD
KOAK 202122Z 2021/2124 17004KT P6SM VCSH SCT009 BKN060 OVC090
      TEMPO 2023/2103 SCT007 BKN025 OVC040
     FM210300 20005KT 5SM -SHRA BR SCT010 BKN035 OVC045
     FM210600 20004KT P6SM BKN015 OVC020
     FM211800 23006KT P6SM BKN020=



000
FTUS46 KMTR 202100 AAB
TAFSFO
TAF AMD
KSFO 202106Z 2021/2124 20005KT 6SM BR VCSH SCT012 BKN040 OVC100
      TEMPO 2023/2103 SCT010 BKN030 OVC040
     FM210300 20005KT 5SM -SHRA BR SCT010 OVC030
     FM210600 20004KT P6SM BKN015 OVC020
     FM211800 30006KT P6SM BKN020=



000
FTUS46 KMTR 201900 AAA
TAFSJC
TAF AMD
KSJC 201936Z 2020/2118 18004KT P6SM VCSH FEW008 SCT015 OVC070
     FM202200 29005KT P6SM SCT012 BKN025 OVC040
     FM210200 12005KT 6SM -SHRA BR BKN015 OVC030
     FM210600 VRB03KT P6SM BKN015 OVC050=



000
FTUS46 KMTR 201900 AAA
TAFMRY
TAF AMD
KMRY 201934Z 2020/2118 29005KT P6SM FEW020 BKN080
     FM210400 21003KT P6SM -SHRA BKN025 OVC030
     FM210700 VRB03KT P6SM FEW010 BKN020 OVC030
     FM211200 VRB03KT P6SM OVC010=



000
FTUS46 KMTR 201900 AAA
TAFOAK
TAF AMD
KOAK 201932Z 2020/2124 17004KT P6SM VCSH SCT009 BKN060 OVC090
     FM202030 21004KT 5SM BR VCSH SCT007 BKN025 OVC040
     FM210300 20005KT 5SM -SHRA BR SCT010 BKN035 OVC045
     FM210600 20004KT P6SM BKN015 OVC020
     FM211800 23006KT P6SM BKN020=



000
FTUS46 KMTR 201900 AAA
TAFSFO
TAF AMD
KSFO 201926Z 2019/2124 VRB03KT P6SM FEW006 BKN060 OVC100
     FM202030 20005KT P6SM VCSH SCT008 BKN025 OVC060
     FM210300 20005KT 5SM -SHRA BR SCT010 OVC030
     FM210600 20004KT P6SM BKN015 OVC020
     FM211800 30006KT P6SM BKN020=



000
FTUS46 KMTR 201700 CCA
TAFSNS
TAF COR
KSNS 201748Z 2018/2118 11007KT P6SM VCSH BKN020 OVC030
     FM202100 27005KT P6SM SCT015 BKN030 OVC100
     FM210400 VRB03KT P6SM VCSH BKN025 OVC035
     FM211200 14005KT P6SM OVC015=



000
FTUS46 KMTR 201700 CCA
TAFMRY
TAF COR
KMRY 201743Z 2018/2118 24005KT P6SM VCSH FEW010 BKN030 OVC040
     FM202000 29005KT P6SM BKN025 OVC030
     FM210400 21003KT P6SM -SHRA BKN025 OVC030
     FM210700 VRB03KT P6SM FEW010 BKN020 OVC030
     FM211200 VRB03KT P6SM OVC010=



000
FTUS46 KMTR 201700
TAFSFO
TAF
KSFO 201740Z 2018/2124 VRB03KT 5SM BR SCT005 BKN016 OVC080
     FM201900 19005KT 5SM BR VCSH BKN007 BKN016 OVC020
     FM210300 20005KT 5SM -SHRA BR SCT009 OVC016
     FM210600 20004KT P6SM BKN015 OVC020
     FM211800 30006KT P6SM BKN020=



000
FTUS46 KMTR 201700
TAFSNS
TAF
KSNS 201740Z 2018/2118 11007KT P6SM VCSH OVC030
     FM202100 27005KT P6SM BKN040
     FM210400 VRB03KT P6SM BKN040=



000
FTUS46 KMTR 201700
TAFOAK
TAF
KOAK 201740Z 2018/2124 17003KT 5SM BR VCSH SCT009 BKN030 OVC090
     FM201900 19004KT 5SM BR VCSH BKN012 BKN020 OVC080
     FM202100 21004KT 5SM -SHRA BR BKN007 BKN015 OVC020
     FM210300 20005KT 5SM BR VCSH SCT010 BKN020 OVC035
     FM210600 20004KT P6SM BKN015 OVC020
     FM211800 23006KT P6SM BKN020=



000
FTUS46 KMTR 201700
TAFSTS
TAF
KSTS 201740Z 2018/2118 VRB03KT 2SM BR VCSH OVC003
     FM210000 18004KT 3SM -SHRA BR OVC005
     FM210600 00000KT 2SM BR OVC003
     FM211700 VRB03KT 5SM BR SCT006 BKN015=



000
FTUS46 KMTR 201700
TAFMRY
TAF
KMRY 201740Z 2018/2118 24005KT P6SM VCSH FEW010 BKN030 OVC040
     FM202000 29005KT P6SM BKN025 OVC030
     FM210400 17003KT P6SM VCSH BKN025 OVC030=



000
FTUS46 KMTR 201700
TAFSJC
TAF
KSJC 201740Z 2018/2118 VRB03KT P6SM VCSH FEW005 BKN040 OVC090
     FM201900 18004KT P6SM VCSH SCT008 BKN020 OVC060
     FM202200 29005KT P6SM BKN010 OVC040
     FM210200 12005KT 6SM -SHRA BR BKN010 OVC030
     FM210600 VRB03KT P6SM BKN015 OVC050=



000
FTUS46 KMTR 201600 AAB
TAFSFO
TAF AMD
KSFO 201639Z 2017/2118 17003KT 5SM BR BKN007 BKN016 OVC100
     FM201900 19005KT 5SM BR VCSH BKN007 BKN016 OVC020
     FM210300 20005KT 5SM -SHRA BR SCT009 OVC016
     FM210600 20004KT P6SM OVC015=



000
FTUS46 KMTR 201600 AAA
TAFOAK
TAF AMD
KOAK 201629Z 2016/2118 14003KT 5SM BR VCSH BKN006 OVC015
     FM201900 16005KT 5SM BR VCSH BKN012 BKN020 OVC100
     FM202100 21004KT 5SM -SHRA BR BKN007 BKN015 OVC020
     FM210300 20005KT 5SM BR VCSH SCT010 BKN020 OVC035
     FM210600 20004KT P6SM OVC015=



000
FTUS46 KMTR 201600 AAA
TAFSTS
TAF AMD
KSTS 201614Z 2016/2112 VRB03KT 2SM BR VCSH OVC003
     FM210000 18004KT 3SM -SHRA BR OVC005
     FM210600 24005KT P6SM OVC010=



000
FTUS46 KMTR 201500 AAA
TAFSFO
TAF AMD
KSFO 201505Z 2015/2118 17003KT 5SM BR SCT004 BKN010 OVC100
     FM201700 16004KT P6SM SCT007 BKN020 OVC040
     FM202000 15005KT P6SM SCT025 BKN050
     FM210600 20004KT P6SM OVC015=



000
FTUS46 KMTR 201100
TAFSNS
TAF
KSNS 201136Z 2012/2112 12007KT P6SM BKN035 OVC050
     FM201700 13006KT P6SM BKN040
     FM202100 27005KT P6SM BKN040
     FM210400 VRB03KT P6SM BKN040=



000
FTUS46 KMTR 201100
TAFMRY
TAF
KMRY 201136Z 2012/2112 11003KT P6SM VCSH SCT025 BKN040
     FM201700 24005KT P6SM BKN040
     FM210400 17003KT P6SM VCSH BKN025 BKN040=



000
FTUS46 KMTR 201100
TAFSTS
TAF
KSTS 201136Z 2012/2112 00000KT 4SM BR OVC005
      TEMPO 2012/2016 1/2SM FG OVC003
     FM201700 VRB03KT 6SM -RA BR SCT006 OVC015
     FM202100 18005KT 6SM -RA BR BKN012 OVC020
     FM210600 24005KT P6SM OVC010=



000
FTUS46 KMTR 201100
TAFSFO
TAF
KSFO 201136Z 2012/2118 17004KT P6SM BKN007 OVC015
     FM201700 16004KT P6SM SCT007 BKN020 OVC040
     FM202000 15005KT P6SM SCT025 BKN050
     FM210600 20004KT P6SM OVC015=



000
FTUS46 KMTR 201100
TAFSJC
TAF
KSJC 201136Z 2012/2112 14003KT P6SM VCSH BKN025 OVC040
     FM201800 14004KT P6SM SCT030 BKN100
     FM202300 29005KT P6SM BKN050
     FM210600 VRB03KT P6SM BKN015 OVC050=



000
FTUS46 KMTR 201100
TAFOAK
TAF
KOAK 201136Z 2012/2118 14004KT P6SM BKN007 OVC015
     FM201700 11004KT P6SM SCT007 BKN020 OVC040
     FM202000 16005KT P6SM SCT025 BKN050
     FM210600 20004KT P6SM OVC015=



000
FTUS46 KMTR 200800 AAA
TAFSFO
TAF AMD
KSFO 200858Z 2009/2112 14003KT P6SM VCSH SCT004 BKN010 OVC015
     FM201200 17004KT P6SM OVC015
     FM201700 18004KT P6SM BKN025 OVC040
     FM201900 18005KT P6SM SCT025 OVC050
     FM202100 19005KT P6SM SCT025 BKN050
     FM210600 20004KT P6SM OVC015=



000
FTUS46 KMTR 200600 AAA
TAFSTS
TAF AMD
KSTS 200647Z 2007/2106 00000KT 4SM BR SCT007 OVC015
      TEMPO 2012/2016 1/2SM FG OVC003
     FM201700 VRB03KT 6SM -RA BR FEW006 BKN015 OVC020
     FM202100 21005KT 6SM -RA BR BKN012 OVC020=



000
FTUS46 KMTR 200500
TAFOAK
TAF
KOAK 200540Z 2006/2112 16005KT P6SM VCSH SCT006 BKN012 OVC015
     FM201200 14004KT P6SM OVC015
     FM201700 11004KT P6SM BKN025 OVC040
     FM201900 16005KT P6SM SCT025 OVC050
     FM202100 20005KT P6SM SCT025 BKN050
     FM210600 20004KT P6SM OVC015=



000
FTUS46 KMTR 200500
TAFSJC
TAF
KSJC 200540Z 2006/2106 11003KT P6SM VCSH SCT030 BKN050
      TEMPO 2006/2008 -SHRA BKN025
     FM200900 14003KT P6SM VCSH BKN015 OVC025
     FM201500 16004KT P6SM BKN025 OVC100
     FM201800 14004KT P6SM SCT030 BKN100
     FM202300 25005KT P6SM SCT015 OVC050=



000
FTUS46 KMTR 200500
TAFMRY
TAF
KMRY 200540Z 2006/2106 11003KT P6SM -RA BKN025 OVC035
     FM201600 11003KT P6SM OVC025
     FM201800 24003KT P6SM FEW025 BKN040 OVC100
     FM202200 27005KT P6SM FEW025 BKN040 OVC100
     FM210200 17003KT P6SM OVC015=



000
FTUS46 KMTR 200500
TAFSFO
TAF
KSFO 200540Z 2006/2112 14003KT P6SM VCSH SCT004 BKN010 OVC015
     FM201200 17004KT P6SM OVC015
     FM201700 18004KT P6SM BKN025 OVC040
     FM201900 18005KT P6SM SCT025 OVC050
     FM202100 19005KT P6SM SCT025 BKN050
     FM210600 20004KT P6SM OVC015=



000
FTUS46 KMTR 200500
TAFSNS
TAF
KSNS 200540Z 2006/2106 12010KT P6SM -RA BKN035 OVC050
     FM201600 12008KT P6SM OVC025
     FM201800 13008KT P6SM FEW025 BKN040 OVC100
     FM202200 27005KT P6SM FEW025 BKN040 OVC100
     FM210200 29003KT P6SM OVC015=



000
FTUS46 KMTR 200500
TAFSTS
TAF
KSTS 200540Z 2006/2106 17003KT 6SM BR SCT007 SCT020 OVC050
     FM201000 00000KT 4SM BR OVC015
      TEMPO 2012/2016 1/2SM FG OVC003
     FM201700 VRB03KT 6SM -RA BR FEW006 BKN015 OVC020
     FM202100 21005KT 6SM -RA BR BKN012 OVC020=



000
FTUS46 KMTR 200200 AAA
TAFOAK
TAF AMD
KOAK 200254Z 2003/2106 13007KT P6SM -SHRA SCT009 BKN013 OVC050
     FM200600 16005KT P6SM VCSH SCT006 OVC015
     FM201200 14004KT P6SM OVC015
     FM201700 11004KT P6SM BKN025 OVC040
     FM202100 20005KT P6SM SCT030 BKN050=



000
FTUS46 KMTR 200200 AAA
TAFSNS
TAF AMD
KSNS 200254Z 2003/2024 10010KT P6SM -SHRA BKN035 OVC090
     FM200500 10003KT P6SM VCSH SCT035 BKN050
     FM201200 11004KT P6SM SCT030 BKN070=



000
FTUS46 KMTR 200200 AAA
TAFSFO
TAF AMD
KSFO 200251Z 2003/2106 08004KT P6SM SCT006 OVC015
     FM200600 VRB03KT P6SM VCSH SCT006 OVC015
     FM201200 VRB03KT P6SM OVC015
     FM201700 11004KT P6SM BKN025 OVC040
     FM202100 20005KT P6SM SCT030 BKN050=



000
FTUS46 KMTR 200200 AAA
TAFSJC
TAF AMD
KSJC 200247Z 2003/2024 11003KT P6SM -RA FEW012 BKN025 OVC070
     FM200700 12003KT P6SM VCSH OVC025
     FM201800 14004KT P6SM SCT040 BKN100=



000
FTUS46 KMTR 192300
TAFSNS
TAF
KSNS 192337Z 2000/2024 13012G18KT P6SM -SHRA FEW020 BKN030 OVC045
     FM200300 10006KT P6SM -RA SCT035 BKN050
     FM200500 10003KT P6SM VCSH SCT035 BKN050
     FM201200 11004KT P6SM SCT030 BKN070=



000
FTUS46 KMTR 192300
TAFOAK
TAF
KOAK 192337Z 2000/2106 16012G18KT 6SM -SHRA BR OVC025
     FM200300 16004KT P6SM FEW030 SCT060 BKN100
     FM201200 11003KT P6SM FEW040 SCT100
     FM202100 23005KT P6SM FEW020 SCT030 BKN050=



000
FTUS46 KMTR 192300
TAFMRY
TAF
KMRY 192337Z 2000/2024 VRB04KT P6SM -SHRA OVC030
     FM200200 11003KT P6SM -RA SCT020 OVC040
     FM200500 11003KT P6SM VCSH SCT025 BKN050
     FM201200 10003KT P6SM FEW020 SCT040 BKN080=



000
FTUS46 KMTR 192300
TAFSFO
TAF
KSFO 192337Z 2000/2106 VRB04KT 6SM -SHRA BR SCT009 BKN014 OVC024
     FM200200 VRB04KT P6SM -SHRA FEW015 BKN025 OVC100
     FM200600 VRB03KT P6SM VCSH FEW020 SCT030 BKN100
     FM201200 VRB03KT P6SM FEW040 SCT100
     FM202100 36005KT P6SM FEW020 SCT030 BKN050=



000
FTUS46 KMTR 192300
TAFSTS
TAF
KSTS 192337Z 2000/2024 00000KT P6SM SCT008 BKN060 OVC100
     FM200200 00000KT P6SM BKN009 OVC015
     FM200500 00000KT 2SM BR OVC007
     FM200600 30002KT 1/2SM FG OVC003
     FM201800 VRB03KT 6SM BR FEW006 SCT030 BKN050=



000
FTUS46 KMTR 192300
TAFSJC
TAF
KSJC 192337Z 2000/2024 13008KT 6SM -SHRA SCT030 BKN050
      TEMPO 2001/2004 4SM RA BR OVC030
     FM200700 12003KT P6SM VCSH SCT030 BKN050
     FM201500 14004KT P6SM SCT040 BKN100=



000
FTUS46 KMTR 192100 AAA
TAFSNS
TAF AMD
KSNS 192110Z 1921/2018 13012G18KT P6SM VCSH FEW020 BKN040 OVC050
     FM200300 10006KT P6SM -RA SCT035 BKN050
     FM200500 10003KT P6SM VCSH SCT035 BKN050
     FM201200 11004KT P6SM SCT030 BKN070=



000
FTUS46 KMTR 192100 AAA
TAFOAK
TAF AMD
KOAK 192109Z 1921/2024 16012G18KT P6SM -RA BKN025 OVC050
      TEMPO 1921/2001 4SM RA BR OVC025
     FM200300 16004KT P6SM FEW030 SCT060 BKN100
     FM201200 11003KT P6SM FEW040 SCT100
     FM202100 23005KT P6SM FEW020 SCT030 BKN050=



000
FTUS46 KMTR 192000 AAB
TAFSFO
TAF AMD
KSFO 192059Z 1921/2024 17006KT P6SM -RA FEW012 BKN024 OVC035
      TEMPO 1921/2001 4SM RA BR BKN020 OVC025
     FM200300 VRB04KT P6SM -SHRA FEW015 BKN025 OVC100
     FM200600 VRB03KT P6SM VCSH FEW020 SCT030 BKN100
     FM201200 VRB03KT P6SM FEW040 SCT100
     FM202100 36005KT P6SM FEW020 SCT030 BKN050=



000
FTUS46 KMTR 192000 AAB
TAFSTS
TAF AMD
KSTS 192007Z 1920/2018 VRB02KT P6SM OVC009
     FM200000 00000KT P6SM BKN012 OVC120
     FM200200 00000KT P6SM BKN009 OVC015
     FM200500 00000KT 2SM BR OVC007
     FM200600 30002KT 1/2SM FG OVC003=



000
FTUS46 KMTR 192000 AAB
TAFSTS
TAF AMD
KSTS 192007Z 1920/2018 VRB02KT P6SM OVC009
     FM200000 00000KT P6SM BKN012 OVC120
     FM200200 00000KT P6SM BKN009 OVC015
     FM200500 00000KT 2SM BR OVC007
     FM200600 30002KT 1/2SM FG OVC003=



    US Dept of Commerce
    National Oceanic and Atmospheric Administration
    National Weather Service
    1325 East West Highway
    Silver Spring, MD 20910
    Page Author: NWS Internet Services Team
Disclaimer
Information Quality
Credits
Glossary
Privacy Policy
Freedom of Information Act (FOIA)
About Us
Career Opportunities